createdAt,value
2018-12-12T00:00:06.001Z,57.30
2018-12-12T00:02:34.915Z,58.80
2018-12-12T00:05:03.068Z,59.70
2018-12-12T00:07:31.258Z,62.03
2018-12-12T00:09:59.428Z,64.93
2018-12-12T00:12:27.580Z,57.47
2018-12-12T00:14:55.757Z,62.30
2018-12-12T00:17:23.928Z,59.50
2018-12-12T00:19:52.107Z,55.43
2018-12-12T00:22:20.295Z,61.37
2018-12-12T00:24:48.467Z,59.27
2018-12-12T00:27:16.619Z,58.17
2018-12-12T00:29:44.806Z,61.00
2018-12-12T00:32:13.092Z,60.27
2018-12-12T00:34:41.268Z,61.77
2018-12-12T00:37:09.441Z,58.87
2018-12-12T00:39:37.613Z,60.43
2018-12-12T00:42:05.800Z,58.13
2018-12-12T00:44:33.988Z,57.33
2018-12-12T00:47:02.670Z,59.17
2018-12-12T00:49:30.964Z,60.07
2018-12-12T00:51:59.233Z,61.17
2018-12-12T00:54:27.778Z,59.97
2018-12-12T00:56:55.955Z,59.80
2018-12-12T00:59:24.145Z,60.30
2018-12-12T01:01:52.315Z,57.60
2018-12-12T01:04:20.507Z,56.30
2018-12-12T01:06:48.695Z,62.03
2018-12-12T01:09:16.863Z,58.67
2018-12-12T01:11:50.488Z,58.37
2018-12-12T01:14:18.664Z,59.70
2018-12-12T01:16:47.696Z,59.33
2018-12-12T01:19:15.978Z,58.33
2018-12-12T01:21:44.148Z,55.53
2018-12-12T01:24:12.926Z,58.90
2018-12-12T01:26:42.104Z,58.90
2018-12-12T01:29:10.265Z,58.67
2018-12-12T01:31:38.437Z,59.53
2018-12-12T01:34:06.621Z,58.33
2018-12-12T01:36:34.790Z,61.47
2018-12-12T01:39:06.653Z,55.60
2018-12-12T01:41:35.239Z,60.33
2018-12-12T01:44:03.410Z,60.33
2018-12-12T01:46:31.587Z,59.43
2018-12-12T01:48:59.752Z,59.37
2018-12-12T01:51:27.913Z,63.53
2018-12-12T01:53:56.098Z,58.63
2018-12-12T01:56:24.543Z,61.03
2018-12-12T01:58:53.765Z,58.17
2018-12-12T02:01:21.979Z,59.87
2018-12-12T02:03:50.844Z,57.93
2018-12-12T02:06:18.986Z,59.87
2018-12-12T02:08:47.200Z,57.77
2018-12-12T02:11:15.354Z,60.23
2018-12-12T02:13:44.757Z,58.90
2018-12-12T02:16:14.166Z,58.97
2018-12-12T02:18:42.838Z,62.77
2018-12-12T02:21:11.019Z,58.57
2018-12-12T02:23:39.200Z,57.97
2018-12-12T02:26:07.361Z,60.60
2018-12-12T02:28:35.524Z,59.00
2018-12-12T02:31:04.260Z,64.10
2018-12-12T02:33:32.427Z,62.53
2018-12-12T02:36:00.578Z,59.23
2018-12-12T02:38:28.745Z,56.13
2018-12-12T02:40:57.509Z,58.83
2018-12-12T02:43:25.690Z,62.50
2018-12-12T02:45:53.889Z,58.10
2018-12-12T02:48:22.039Z,58.20
2018-12-12T02:50:50.209Z,60.17
2018-12-12T02:53:18.398Z,56.87
2018-12-12T02:55:46.575Z,56.40
2018-12-12T02:58:14.756Z,57.47
2018-12-12T03:00:42.936Z,56.03
2018-12-12T03:03:11.418Z,57.80
2018-12-12T03:05:39.593Z,61.60
2018-12-12T03:08:07.778Z,57.83
2018-12-12T03:10:35.929Z,59.03
2018-12-12T03:13:04.078Z,59.00
2018-12-12T03:15:32.264Z,56.17
2018-12-12T03:18:00.428Z,59.10
2018-12-12T03:20:28.571Z,59.40
2018-12-12T03:22:56.728Z,55.27
2018-12-12T03:25:24.871Z,57.37
2018-12-12T03:27:53.021Z,58.07
2018-12-12T03:30:21.184Z,58.90
2018-12-12T03:32:49.868Z,56.30
2018-12-12T03:35:18.140Z,57.63
2018-12-12T03:37:46.439Z,58.00
2018-12-12T03:40:14.616Z,57.40
2018-12-12T03:42:43.180Z,56.20
2018-12-12T03:45:11.352Z,58.80
2018-12-12T03:47:39.498Z,63.03
2018-12-12T03:50:07.648Z,59.60
2018-12-12T03:52:35.828Z,59.07
2018-12-12T03:55:05.699Z,59.20
2018-12-12T03:57:33.870Z,58.67
2018-12-12T04:00:02.053Z,60.77
2018-12-12T04:02:30.327Z,61.30
2018-12-12T04:04:58.487Z,60.47
2018-12-12T04:07:26.661Z,63.53
2018-12-12T04:09:55.289Z,61.73
2018-12-12T04:12:23.432Z,61.20
2018-12-12T04:14:51.597Z,63.57
2018-12-12T04:17:19.741Z,61.10
2018-12-12T04:19:47.902Z,59.47
2018-12-12T04:22:17.189Z,60.23
2018-12-12T04:24:46.156Z,62.53
2018-12-12T04:27:14.326Z,62.30
2018-12-12T04:29:42.498Z,62.93
2018-12-12T04:32:10.649Z,59.60
2018-12-12T04:34:38.797Z,60.83
2018-12-12T04:37:06.982Z,64.27
2018-12-12T04:39:35.126Z,64.33
2018-12-12T04:42:03.265Z,59.50
2018-12-12T04:44:31.430Z,60.47
2018-12-12T04:46:59.577Z,59.47
2018-12-12T04:49:27.721Z,60.57
2018-12-12T04:51:55.906Z,61.17
2018-12-12T04:54:24.052Z,63.47
2018-12-12T04:56:52.203Z,65.83
2018-12-12T04:59:20.750Z,64.97
2018-12-12T05:01:48.900Z,60.53
2018-12-12T05:04:17.136Z,59.80
2018-12-12T05:06:45.547Z,59.67
2018-12-12T05:09:13.707Z,63.20
2018-12-12T05:11:41.849Z,60.27
2018-12-12T05:14:10.280Z,60.87
2018-12-12T05:16:38.455Z,62.73
2018-12-12T05:19:06.603Z,63.43
2018-12-12T05:21:34.784Z,62.10
2018-12-12T05:24:02.928Z,62.97
2018-12-12T05:26:31.111Z,59.33
2018-12-12T05:28:59.305Z,59.77
2018-12-12T05:31:27.449Z,61.10
2018-12-12T05:33:55.669Z,65.13
2018-12-12T05:36:23.816Z,61.50
2018-12-12T05:38:52.157Z,60.77
2018-12-12T05:41:20.340Z,62.57
2018-12-12T05:43:48.486Z,60.40
2018-12-12T05:46:16.664Z,61.97
2018-12-12T05:48:44.832Z,62.53
2018-12-12T05:51:12.973Z,63.40
2018-12-12T05:53:41.144Z,66.37
2018-12-12T05:56:14.112Z,61.70
2018-12-12T05:58:42.818Z,59.07
2018-12-12T06:01:11.040Z,64.20
2018-12-12T06:03:39.211Z,59.70
2018-12-12T06:06:07.444Z,59.33
2018-12-12T06:08:35.616Z,61.77
2018-12-12T06:11:03.780Z,63.93
2018-12-12T06:13:31.938Z,64.43
2018-12-12T06:16:00.209Z,61.23
2018-12-12T06:18:29.190Z,61.83
2018-12-12T06:20:57.337Z,56.60
2018-12-12T06:23:25.508Z,63.77
2018-12-12T06:25:54.395Z,60.10
2018-12-12T06:28:22.555Z,61.73
2018-12-12T06:30:51.512Z,58.87
2018-12-12T06:33:19.868Z,64.73
2018-12-12T06:35:48.020Z,59.60
2018-12-12T06:38:16.816Z,63.03
2018-12-12T06:40:45.012Z,57.40
2018-12-12T06:43:13.172Z,58.47
2018-12-12T06:45:41.338Z,60.97
2018-12-12T06:48:10.282Z,62.30
2018-12-12T06:50:38.451Z,61.20
2018-12-12T06:53:06.658Z,60.53
2018-12-12T06:55:34.829Z,59.23
2018-12-12T06:58:03.865Z,57.63
2018-12-12T07:00:32.032Z,58.53
2018-12-12T07:03:00.921Z,62.47
2018-12-12T07:05:30.040Z,62.90
2018-12-12T07:07:58.235Z,59.97
2018-12-12T07:10:26.728Z,59.10
2018-12-12T07:12:55.555Z,60.13
2018-12-12T07:15:23.732Z,61.43
2018-12-12T07:17:51.870Z,59.50
2018-12-12T07:20:20.052Z,58.20
2018-12-12T07:22:48.958Z,61.43
2018-12-12T07:25:17.519Z,63.53
2018-12-12T07:27:45.753Z,63.63
2018-12-12T07:30:14.010Z,59.67
2018-12-12T07:32:42.753Z,63.00
2018-12-12T07:35:10.912Z,59.63
2018-12-12T07:37:39.063Z,57.70
2018-12-12T07:40:07.437Z,60.60
2018-12-12T07:42:35.616Z,60.90
2018-12-12T07:45:04.405Z,61.23
2018-12-12T07:47:32.578Z,61.87
2018-12-12T07:50:00.752Z,64.70
2018-12-12T07:52:28.909Z,58.07
2018-12-12T07:54:57.082Z,58.23
2018-12-12T07:57:25.261Z,62.67
2018-12-12T07:59:54.069Z,58.07
2018-12-12T08:02:22.621Z,58.47
2018-12-12T08:04:51.691Z,57.47
2018-12-12T08:07:19.851Z,59.57
2018-12-12T08:09:48.014Z,61.77
2018-12-12T08:12:16.184Z,58.13
2018-12-12T08:14:44.322Z,58.53
2018-12-12T08:17:13.099Z,59.33
2018-12-12T08:19:41.270Z,60.27
2018-12-12T08:22:09.553Z,57.43
2018-12-12T08:24:37.713Z,58.70
2018-12-12T08:27:07.306Z,59.30
2018-12-12T08:29:35.457Z,59.33
2018-12-12T08:32:03.680Z,60.83
2018-12-12T08:34:33.729Z,60.00
2018-12-12T08:37:01.953Z,61.60
2018-12-12T08:39:30.124Z,60.30
2018-12-12T08:41:59.206Z,53.93
2018-12-12T08:44:27.672Z,59.80
2018-12-12T08:46:55.852Z,58.33
2018-12-12T08:49:24.047Z,65.73
2018-12-12T08:51:52.197Z,62.63
2018-12-12T08:54:20.379Z,64.00
2018-12-12T08:56:48.572Z,61.20
2018-12-12T08:59:16.721Z,61.90
2018-12-12T09:01:45.051Z,62.63
2018-12-12T09:04:13.321Z,66.47
2018-12-12T09:06:41.469Z,66.90
2018-12-12T09:09:09.613Z,62.27
2018-12-12T09:11:37.800Z,68.13
2018-12-12T09:14:05.960Z,62.43
2018-12-12T09:16:34.121Z,62.17
2018-12-12T09:19:02.290Z,62.47
2018-12-12T09:21:30.444Z,64.70
2018-12-12T09:23:58.594Z,63.93
2018-12-12T09:26:26.788Z,63.20
2018-12-12T09:28:55.618Z,66.90
2018-12-12T09:31:23.775Z,67.43
2018-12-12T09:33:51.949Z,64.83
2018-12-12T09:36:21.837Z,69.47
2018-12-12T09:38:50.100Z,65.77
2018-12-12T09:41:18.263Z,67.03
2018-12-12T09:43:46.749Z,65.33
2018-12-12T09:46:14.893Z,63.37
2018-12-12T09:48:43.063Z,63.97
2018-12-12T09:51:11.235Z,63.53
2018-12-12T09:53:39.385Z,62.57
2018-12-12T09:56:07.581Z,64.73
2018-12-12T09:58:35.729Z,64.07
2018-12-12T10:01:03.897Z,63.00
2018-12-12T10:03:32.088Z,61.97
2018-12-12T10:06:00.317Z,65.10
2018-12-12T10:08:28.469Z,63.23
2018-12-12T10:10:56.660Z,64.87
2018-12-12T10:13:24.841Z,65.20
2018-12-12T10:15:53.003Z,69.07
2018-12-12T10:18:21.203Z,66.47
2018-12-12T10:20:50.383Z,67.80
2018-12-12T10:23:18.521Z,64.20
2018-12-12T10:25:46.709Z,67.87
2018-12-12T10:28:14.867Z,65.63
2018-12-12T10:30:44.755Z,63.70
2018-12-12T10:33:12.941Z,65.10
2018-12-12T10:35:41.076Z,67.37
2018-12-12T10:38:09.252Z,64.37
2018-12-12T10:40:37.469Z,64.87
2018-12-12T10:43:05.645Z,68.00
2018-12-12T10:45:33.825Z,62.70
2018-12-12T10:48:02.353Z,65.07
2018-12-12T10:50:30.613Z,64.47
2018-12-12T10:52:58.779Z,63.63
2018-12-12T10:55:27.094Z,63.50
2018-12-12T10:57:55.490Z,66.00
2018-12-12T11:00:25.350Z,63.10
2018-12-12T11:06:08.042Z,64.30
2018-12-12T11:08:36.231Z,64.47
2018-12-12T11:11:04.392Z,60.17
2018-12-12T11:13:32.781Z,66.73
2018-12-12T11:16:00.970Z,61.23
2018-12-12T11:18:29.213Z,64.67
2018-12-12T11:20:57.385Z,63.80
2018-12-12T11:23:26.507Z,62.43
2018-12-12T11:25:54.673Z,61.40
2018-12-12T11:28:22.843Z,68.67
2018-12-12T11:30:51.010Z,66.93
2018-12-12T11:33:20.050Z,66.30
2018-12-12T11:35:48.228Z,62.03
2018-12-12T11:38:16.381Z,64.33
2018-12-12T11:40:44.583Z,65.40
2018-12-12T11:43:12.962Z,71.00
2018-12-12T11:45:41.232Z,66.83
2018-12-12T11:48:09.435Z,66.13
2018-12-12T11:50:37.584Z,66.73
2018-12-12T11:53:05.737Z,63.53
2018-12-12T11:55:34.715Z,67.80
2018-12-12T11:58:02.887Z,64.47
2018-12-12T12:00:31.072Z,65.77
2018-12-12T12:02:59.259Z,69.47
2018-12-12T12:05:27.420Z,62.53
2018-12-12T12:07:55.569Z,63.53
2018-12-12T12:10:23.769Z,66.83
2018-12-12T12:12:51.923Z,64.17
2018-12-12T12:15:20.064Z,61.53
2018-12-12T12:17:48.234Z,65.13
2018-12-12T12:20:16.416Z,66.00
2018-12-12T12:22:44.577Z,65.77
2018-12-12T12:25:12.740Z,62.50
2018-12-12T12:27:40.908Z,60.93
2018-12-12T12:30:09.188Z,62.13
2018-12-12T12:32:37.444Z,67.70
2018-12-12T12:35:06.217Z,64.23
2018-12-12T12:37:34.396Z,64.20
2018-12-12T12:40:02.985Z,61.43
2018-12-12T12:42:31.165Z,62.17
2018-12-12T12:44:59.310Z,63.53
2018-12-12T12:47:27.829Z,65.40
2018-12-12T12:49:56.274Z,61.40
2018-12-12T12:52:24.523Z,60.57
2018-12-12T12:54:52.709Z,61.77
2018-12-12T12:57:20.870Z,64.13
2018-12-12T12:59:49.030Z,59.97
2018-12-12T13:02:17.228Z,64.83
2018-12-12T13:04:46.284Z,61.00
2018-12-12T13:07:15.118Z,60.63
2018-12-12T13:09:43.307Z,62.63
2018-12-12T13:12:11.672Z,60.93
2018-12-12T13:14:40.167Z,63.50
2018-12-12T13:17:08.351Z,60.93
2018-12-12T13:19:36.512Z,61.27
2018-12-12T13:22:04.678Z,62.10
2018-12-12T13:24:32.866Z,58.60
2018-12-12T13:27:01.014Z,59.50
2018-12-12T13:29:29.172Z,59.13
2018-12-12T13:31:58.212Z,57.83
2018-12-12T13:34:26.391Z,59.73
2018-12-12T13:36:54.556Z,59.97
2018-12-12T13:39:23.439Z,59.17
2018-12-12T13:41:52.252Z,60.30
2018-12-12T13:44:20.412Z,60.83
2018-12-12T13:46:48.589Z,63.53
2018-12-12T13:49:16.737Z,60.70
2018-12-12T13:51:44.890Z,59.00
2018-12-12T13:54:13.080Z,61.33
2018-12-12T13:56:41.949Z,61.77
2018-12-12T13:59:10.897Z,61.80
2018-12-12T14:01:39.070Z,63.70
2018-12-12T14:04:07.573Z,61.17
2018-12-12T14:06:35.739Z,59.83
2018-12-12T14:09:05.252Z,59.53
2018-12-12T14:11:34.304Z,58.70
2018-12-12T14:14:02.499Z,59.43
2018-12-12T14:16:30.705Z,61.07
2018-12-12T14:18:58.872Z,60.70
2018-12-12T14:21:27.033Z,61.80
2018-12-12T14:23:55.299Z,61.90
2018-12-12T14:26:23.491Z,65.00
2018-12-12T14:28:51.644Z,63.40
2018-12-12T14:31:19.831Z,62.13
2018-12-12T14:33:48.015Z,64.00
2018-12-12T14:36:16.169Z,60.67
2018-12-12T14:38:44.354Z,66.60
2018-12-12T14:41:12.533Z,64.37
2018-12-12T14:43:40.701Z,65.00
2018-12-12T14:46:08.865Z,61.93
2018-12-12T14:48:37.017Z,59.47
2018-12-12T14:51:05.182Z,60.00
2018-12-12T14:53:33.357Z,61.63
2018-12-12T14:56:01.515Z,63.60
2018-12-12T14:58:29.683Z,59.33
2018-12-12T15:00:57.872Z,58.20
2018-12-12T15:03:26.024Z,59.27
2018-12-12T15:05:56.676Z,57.33
2018-12-12T15:08:24.904Z,59.93
2018-12-12T15:10:53.089Z,57.90
2018-12-12T15:13:21.248Z,59.83
2018-12-12T15:15:49.417Z,57.60
2018-12-12T15:18:18.382Z,56.00
2018-12-12T15:20:46.846Z,58.47
2018-12-12T15:23:15.015Z,56.27
2018-12-12T15:25:43.208Z,57.97
2018-12-12T15:28:11.359Z,58.43
2018-12-12T15:30:41.018Z,54.33
2018-12-12T15:33:09.409Z,54.87
2018-12-12T15:35:37.576Z,56.30
2018-12-12T15:38:05.756Z,55.00
2018-12-12T15:40:33.902Z,56.80
2018-12-12T15:43:02.072Z,52.10
2018-12-12T15:45:30.243Z,53.70
2018-12-12T15:47:58.418Z,53.43
2018-12-12T15:50:26.599Z,52.07
2018-12-12T15:52:54.752Z,51.10
2018-12-12T15:55:23.034Z,52.63
2018-12-12T15:57:51.288Z,53.83
2018-12-12T16:00:20.028Z,57.10
2018-12-12T16:02:48.936Z,54.90
2018-12-12T16:05:17.143Z,51.47
2018-12-12T16:07:45.300Z,51.30
2018-12-12T16:10:13.504Z,52.73
2018-12-12T16:12:42.421Z,51.00
2018-12-12T16:15:10.581Z,52.03
2018-12-12T16:17:38.761Z,52.87
2018-12-12T16:20:08.911Z,53.63
2018-12-12T16:22:37.096Z,51.50
2018-12-12T16:25:05.488Z,51.90
2018-12-12T16:27:33.697Z,52.30
2018-12-12T16:30:01.882Z,50.37
2018-12-12T16:32:30.059Z,52.70
2018-12-12T16:34:58.249Z,53.87
2018-12-12T16:37:26.422Z,51.10
2018-12-12T16:39:54.612Z,50.83
2018-12-12T16:42:23.501Z,51.47
2018-12-12T16:44:51.987Z,56.93
2018-12-12T16:47:20.167Z,50.53
2018-12-12T16:49:48.359Z,49.63
2018-12-12T16:52:16.522Z,49.10
2018-12-12T16:54:44.682Z,50.00
2018-12-12T16:57:12.886Z,47.83
2018-12-12T16:59:41.093Z,49.07
2018-12-12T17:02:09.258Z,48.87
2018-12-12T17:04:37.620Z,50.10
2018-12-12T17:07:05.814Z,50.10
2018-12-12T17:09:34.006Z,49.13
2018-12-12T17:12:02.155Z,50.07
2018-12-12T17:14:30.333Z,50.20
2018-12-12T17:16:59.511Z,48.77
2018-12-12T17:19:29.209Z,52.77
2018-12-12T17:21:57.374Z,49.63
2018-12-12T17:24:25.539Z,53.17
2018-12-12T17:26:53.741Z,49.20
2018-12-12T17:29:21.927Z,49.53
2018-12-12T17:31:50.089Z,48.60
2018-12-12T17:34:18.339Z,53.37
2018-12-12T17:36:46.718Z,50.80
2018-12-12T17:39:14.922Z,49.97
2018-12-12T17:41:43.094Z,52.50
2018-12-12T17:44:11.261Z,49.40
2018-12-12T17:46:39.437Z,53.37
2018-12-12T17:49:07.624Z,51.70
2018-12-12T17:51:35.801Z,50.60
2018-12-12T17:54:03.997Z,51.07
2018-12-12T17:56:32.185Z,52.83
2018-12-12T17:59:00.347Z,46.87
2018-12-12T18:01:28.794Z,44.70
2018-12-12T18:03:56.985Z,46.17
2018-12-12T18:06:25.145Z,45.27
2018-12-12T18:08:53.445Z,45.83
2018-12-12T18:11:21.635Z,48.83
2018-12-12T18:13:49.820Z,47.40
2018-12-12T18:16:17.987Z,45.93
2018-12-12T18:18:46.161Z,45.93
2018-12-12T18:21:14.343Z,43.73
2018-12-12T18:23:42.528Z,46.17
2018-12-12T18:26:11.484Z,44.53
2018-12-12T18:28:40.075Z,43.87
2018-12-12T18:31:08.265Z,45.70
2018-12-12T18:33:36.443Z,48.37
2018-12-12T18:36:04.631Z,43.63
2018-12-12T18:38:32.826Z,43.57
2018-12-12T18:41:01.023Z,45.33
2018-12-12T18:43:29.177Z,47.17
2018-12-12T18:45:57.480Z,44.20
2018-12-12T18:48:25.663Z,43.83
2018-12-12T18:50:53.970Z,44.53
2018-12-12T18:53:22.147Z,49.37
2018-12-12T18:55:50.308Z,42.87
2018-12-12T18:58:19.218Z,47.63
2018-12-12T19:00:47.369Z,42.77
2018-12-12T19:03:15.566Z,46.37
2018-12-12T19:05:43.770Z,41.87
2018-12-12T19:08:12.012Z,42.33
2018-12-12T19:10:40.213Z,43.53
2018-12-12T19:13:09.332Z,42.47
2018-12-12T19:15:38.534Z,45.40
2018-12-12T19:18:06.723Z,43.60
2018-12-12T19:20:34.923Z,44.27
2018-12-12T19:23:03.130Z,45.23
2018-12-12T19:25:31.917Z,47.03
2018-12-12T19:28:00.123Z,43.10
2018-12-12T19:30:28.403Z,45.13
2018-12-12T19:32:56.563Z,42.27
2018-12-12T19:35:24.722Z,42.07
2018-12-12T19:37:52.877Z,42.60
2018-12-12T19:40:21.050Z,45.27
2018-12-12T19:42:49.233Z,45.77
2018-12-12T19:45:17.414Z,42.83
2018-12-12T19:47:45.592Z,45.60
2018-12-12T19:50:13.831Z,42.90
2018-12-12T19:52:41.996Z,43.43
2018-12-12T19:55:11.678Z,42.53
2018-12-12T19:57:40.162Z,43.80
2018-12-12T20:00:09.780Z,44.20
2018-12-12T20:02:39.453Z,47.03
2018-12-12T20:05:09.333Z,41.60
2018-12-12T20:07:37.491Z,44.90
2018-12-12T20:10:05.941Z,44.77
2018-12-12T20:12:34.151Z,48.37
2018-12-12T20:15:02.481Z,42.43
2018-12-12T20:17:30.645Z,40.87
2018-12-12T20:19:58.811Z,41.93
2018-12-12T20:22:26.967Z,43.17
2018-12-12T20:24:55.136Z,42.33
2018-12-12T20:27:23.748Z,42.73
2018-12-12T20:29:52.800Z,42.20
2018-12-12T20:32:21.250Z,42.33
2018-12-12T20:34:49.423Z,43.00
2018-12-12T20:37:17.596Z,42.23
2018-12-12T20:39:45.773Z,44.00
2018-12-12T20:42:13.932Z,42.33
2018-12-12T20:44:42.080Z,41.70
2018-12-12T20:47:10.248Z,41.47
2018-12-12T20:49:38.389Z,41.13
2018-12-12T20:52:06.525Z,41.90
2018-12-12T20:54:34.704Z,43.27
2018-12-12T20:57:03.640Z,41.70
2018-12-12T20:59:31.814Z,42.03
2018-12-12T21:01:59.986Z,42.23
2018-12-12T21:04:28.137Z,43.07
2018-12-12T21:06:56.279Z,42.13
2018-12-12T21:09:24.437Z,42.67
2018-12-12T21:11:52.605Z,41.93
2018-12-12T21:14:20.759Z,45.43
2018-12-12T21:16:48.961Z,42.63
2018-12-12T21:19:17.127Z,41.57
2018-12-12T21:21:45.300Z,42.07
2018-12-12T21:24:13.495Z,43.10
2018-12-12T21:26:41.673Z,41.83
2018-12-12T21:29:09.850Z,42.07
2018-12-12T21:31:38.087Z,43.40
2018-12-12T21:34:06.247Z,43.13
2018-12-12T21:36:34.407Z,42.70
2018-12-12T21:39:02.595Z,42.73
2018-12-12T21:41:31.720Z,41.13
2018-12-12T21:43:59.897Z,42.20
2018-12-12T21:46:28.063Z,41.47
2018-12-12T21:48:56.425Z,41.67
2018-12-12T21:51:26.070Z,40.87
2018-12-12T21:53:54.390Z,40.93
2018-12-12T21:56:22.537Z,42.23
2018-12-12T21:58:50.708Z,42.07
2018-12-12T22:01:18.889Z,43.63
2018-12-12T22:03:47.461Z,42.37
2018-12-12T22:06:15.624Z,42.17
2018-12-12T22:08:44.737Z,42.37
2018-12-12T22:11:12.905Z,42.20
2018-12-12T22:13:41.227Z,43.77
2018-12-12T22:16:09.562Z,42.77
2018-12-12T22:18:37.720Z,43.87
2018-12-12T22:21:05.862Z,42.40
2018-12-12T22:23:34.045Z,42.80
2018-12-12T22:26:02.201Z,42.40
2018-12-12T22:28:30.333Z,45.10
2018-12-12T22:30:58.506Z,42.03
2018-12-12T22:33:26.679Z,43.53
2018-12-12T22:35:54.826Z,44.57
2018-12-12T22:38:23.889Z,42.20
2018-12-12T22:40:52.077Z,42.47
2018-12-12T22:43:20.341Z,43.60
2018-12-12T22:45:48.501Z,41.93
2018-12-12T22:48:20.566Z,42.93
2018-12-12T22:50:46.993Z,42.70
2018-12-12T22:53:16.814Z,42.87
2018-12-12T22:55:44.975Z,42.43
2018-12-12T22:58:13.148Z,46.10
2018-12-12T23:00:44.929Z,42.30
2018-12-12T23:03:13.111Z,43.93
2018-12-12T23:05:41.272Z,42.63
2018-12-12T23:08:09.447Z,42.97
2018-12-12T23:10:37.698Z,43.50
2018-12-12T23:13:05.959Z,41.87
2018-12-12T23:15:34.136Z,46.07
2018-12-12T23:18:02.332Z,42.83
2018-12-12T23:20:30.492Z,43.70
2018-12-12T23:22:58.676Z,45.07
2018-12-12T23:25:26.875Z,44.50
2018-12-12T23:27:55.023Z,47.40
2018-12-12T23:30:23.211Z,43.77
2018-12-12T23:32:51.372Z,43.83
2018-12-12T23:35:19.842Z,49.27
2018-12-12T23:37:48.019Z,42.83
2018-12-12T23:40:16.213Z,42.90
2018-12-12T23:42:44.361Z,43.97
2018-12-12T23:45:12.542Z,47.80
2018-12-12T23:47:40.741Z,44.17
2018-12-12T23:50:09.222Z,44.53
2018-12-12T23:52:37.386Z,49.93
2018-12-12T23:55:05.896Z,46.83
2018-12-12T23:57:34.050Z,45.83
